Time;durP1;ratioP1;P1;durP2;ratioP2;P2;SDS_P1;SDS_P2;PMS_P1;PMS_P2;Temp;Humidity;BMP_temperature;BMP_pressure;BME280_temperature;BME280_humidity;BME280_pressure;Samples;Min_cycle;Max_cycle;Signal;HPM_P1;HPM_P2
2022/04/14 00:01:12;;;;;;;;;;;;;;;1.53;79.49;99438.69;4934225;29;19934;-61
2022/04/14 00:03:37;;;;;;;;;;;;;;;1.53;79.43;99422.19;4947539;29;19972;-60
2022/04/14 00:06:03;;;;;;;;;;;;;;;1.45;80.20;99428.31;4953578;29;19937;-61
2022/04/14 00:08:28;;;;;;;;;;;;;;;1.46;79.75;99422.09;4953322;29;19965;-60
2022/04/14 00:10:54;;;;;;;;;;;;;;;1.43;79.86;99417.22;4953483;29;19934;-61
2022/04/14 00:13:19;;;;;;;;;;;;;;;1.40;80.04;99422.81;4935658;29;19927;-60
2022/04/14 00:15:45;;;;;;;;;;;;;;;1.30;80.80;99419.66;4934086;29;19931;-61
2022/04/14 00:18:10;;;;;;;;;;;;;;;1.33;80.88;99420.09;4936628;29;19927;-61
2022/04/14 00:20:35;;;;;;;;;;;;;;;1.33;80.95;99432.34;4937441;29;20300;-59
2022/04/14 00:23:01;;;;;;;;;;;;;;;1.31;80.49;99419.44;4938587;29;19927;-60
2022/04/14 00:25:27;;;;;;;;;;;;;;;1.29;80.54;99423.22;4937567;29;20423;-61
2022/04/14 00:27:52;;;;;;;;;;;;;;;1.26;81.10;99426.19;4939716;29;19930;-61
2022/04/14 00:30:18;;;;;;;;;;;;;;;1.25;81.14;99421.97;4956528;29;19930;-60
2022/04/14 00:32:43;;;;;;;;;;;;;;;1.24;81.16;99415.13;4956511;29;19978;-61
2022/04/14 00:35:09;;;;;;;;;;;;;;;1.25;80.80;99409.72;4956605;29;19933;-61
2022/04/14 00:37:35;;;;;;;;;;;;;;;1.23;81.04;99411.69;4956857;29;20348;-60
2022/04/14 00:40:00;;;;;;;;;;;;;;;1.18;81.39;99405.34;4956538;29;19933;-61
2022/04/14 00:42:26;;;;;;;;;;;;;;;1.18;80.99;99415.81;4956736;29;19930;-60
2022/04/14 00:44:51;;;;;;;;;;;;;;;1.18;81.43;99413.19;4938192;29;19927;-62
2022/04/14 00:47:17;;;;;;;;;;;;;;;1.16;81.02;99402.13;4923213;29;19969;-61
2022/04/14 00:49:42;;;;;;;;;;;;;;;1.10;81.44;99414.09;4939025;29;19926;-59
2022/04/14 00:52:08;;;;;;;;;;;;;;;1.05;81.83;99421.63;4956098;29;19933;-61
2022/04/14 00:54:34;;;;;;;;;;;;;;;1.02;82.21;99414.16;4939302;29;19932;-61
2022/04/14 00:57:00;;;;;;;;;;;;;;;1.02;82.29;99412.34;4955958;29;19974;-60
2022/04/14 00:59:26;;;;;;;;;;;;;;;1.01;82.34;99428.19;4927131;29;19927;-60
2022/04/14 01:01:51;;;;;;;;;;;;;;;0.99;82.48;99424.94;4937055;29;19931;-61
2022/04/14 01:04:17;;;;;;;;;;;;;;;1.01;82.38;99413.34;4935864;29;19927;-61
2022/04/14 01:06:42;;;;;;;;;;;;;;;0.96;82.30;99422.69;4903827;29;19938;-60
2022/04/14 01:09:19;;;;;;;;;;;;;;;0.94;82.24;99422.84;4919774;29;19933;-62
2022/04/14 01:11:51;;;;;;;;;;;;;;;0.90;82.25;99443.25;4935516;29;19934;-62
2022/04/14 01:14:29;;;;;;;;;;;;;;;0.90;82.74;99426.78;4945530;29;19933;-60
2022/04/14 01:16:55;;;;;;;;;;;;;;;0.93;82.89;99443.91;4955691;29;20392;-61
2022/04/14 01:19:21;;;;;;;;;;;;;;;0.92;82.32;99437.06;4955662;29;20292;-61
2022/04/14 01:21:51;;;;;;;;;;;;;;;0.91;82.72;99446.66;4938601;29;19937;-61
2022/04/14 01:24:16;;;;;;;;;;;;;;;0.85;82.47;99431.72;4919620;29;19934;-59
2022/04/14 01:26:42;;;;;;;;;;;;;;;0.88;82.51;99433.97;4936557;29;19930;-61
2022/04/14 01:29:18;;;;;;;;;;;;;;;0.84;82.21;99428.28;4924711;29;19926;-61
2022/04/14 01:31:44;;;;;;;;;;;;;;;0.80;82.43;99447.09;4938142;29;19934;-61
2022/04/14 01:34:09;;;;;;;;;;;;;;;0.83;82.28;99431.09;4955282;29;20418;-63
2022/04/14 01:36:35;;;;;;;;;;;;;;;0.75;82.61;99403.25;4938089;29;20031;-61
2022/04/14 01:39:00;;;;;;;;;;;;;;;0.79;82.79;99427.19;4955413;29;19932;-61
2022/04/14 01:41:26;;;;;;;;;;;;;;;0.76;82.26;99415.28;4955336;29;20299;-61
2022/04/14 01:43:51;;;;;;;;;;;;;;;0.75;82.74;99421.50;4954725;29;20052;-60
2022/04/14 01:46:17;;;;;;;;;;;;;;;0.76;82.42;99420.50;4937950;29;19982;-60
2022/04/14 01:48:42;;;;;;;;;;;;;;;0.75;82.44;99431.13;4955127;29;19984;-59
2022/04/14 01:51:08;;;;;;;;;;;;;;;0.71;82.83;99415.03;4955091;29;19933;-60
2022/04/14 01:53:33;;;;;;;;;;;;;;;0.70;83.21;99423.00;4937523;29;19973;-61
2022/04/14 01:55:59;;;;;;;;;;;;;;;0.66;83.42;99419.94;4937751;29;20261;-61
2022/04/14 01:58:24;;;;;;;;;;;;;;;0.67;82.84;99422.34;4937540;29;19937;-61
2022/04/14 02:00:49;;;;;;;;;;;;;;;0.64;83.30;99421.91;4938049;29;19931;-61
2022/04/14 02:03:15;;;;;;;;;;;;;;;0.57;83.26;99411.34;4935616;29;19957;-61
2022/04/14 02:05:40;;;;;;;;;;;;;;;0.58;83.70;99410.34;4935797;29;19929;-61
2022/04/14 02:08:06;;;;;;;;;;;;;;;0.59;82.80;99417.22;4935536;29;20444;-61
2022/04/14 02:10:32;;;;;;;;;;;;;;;0.56;83.47;99425.38;4935458;29;19923;-60
2022/04/14 02:12:58;;;;;;;;;;;;;;;0.58;83.05;99423.41;4935396;29;20326;-61
2022/04/14 02:15:23;;;;;;;;;;;;;;;0.57;83.29;99426.19;4946530;29;19934;-60
2022/04/14 02:17:49;;;;;;;;;;;;;;;0.57;83.18;99440.03;4954840;29;19930;-61
2022/04/14 02:20:15;;;;;;;;;;;;;;;0.58;83.11;99436.44;4954252;29;20032;-60
2022/04/14 02:22:40;;;;;;;;;;;;;;;0.58;83.02;99427.81;4954614;29;19985;-61
2022/04/14 02:25:06;;;;;;;;;;;;;;;0.53;83.10;99432.72;4953177;29;20033;-60
2022/04/14 02:27:32;;;;;;;;;;;;;;;0.51;83.22;99432.09;4937349;29;19930;-61
2022/04/14 02:29:57;;;;;;;;;;;;;;;0.48;83.69;99442.88;4947558;29;19974;-61
2022/04/14 02:32:23;;;;;;;;;;;;;;;0.49;83.44;99445.28;4935026;29;19978;-61
2022/04/14 02:34:48;;;;;;;;;;;;;;;0.48;83.85;99441.06;4934110;29;20397;-62
2022/04/14 02:37:14;;;;;;;;;;;;;;;0.52;83.67;99459.78;4935383;29;19942;-59
2022/04/14 02:39:39;;;;;;;;;;;;;;;0.52;84.05;99451.97;4935251;29;19926;-65
2022/04/14 02:42:05;;;;;;;;;;;;;;;0.55;83.82;99462.06;4935228;29;19949;-61
2022/04/14 02:44:30;;;;;;;;;;;;;;;0.56;83.27;99459.28;4936154;29;20300;-61
2022/04/14 02:46:56;;;;;;;;;;;;;;;0.64;82.76;99477.50;4954031;29;19930;-61
2022/04/14 02:49:23;;;;;;;;;;;;;;;0.66;82.50;99472.13;4952495;29;19932;-61
2022/04/14 02:51:48;;;;;;;;;;;;;;;0.71;82.96;99467.19;4936967;29;20025;-61
2022/04/14 02:54:14;;;;;;;;;;;;;;;0.76;82.43;99469.28;4953906;29;20033;-60
2022/04/14 02:56:39;;;;;;;;;;;;;;;0.77;82.81;99466.50;4953907;29;19930;-61
2022/04/14 02:59:05;;;;;;;;;;;;;;;0.81;82.66;99482.63;4954190;29;19926;-60
2022/04/14 03:01:30;;;;;;;;;;;;;;;0.85;81.88;99481.28;4920581;29;19938;-61
2022/04/14 03:03:56;;;;;;;;;;;;;;;0.87;82.03;99476.72;4934731;29;20113;-60
2022/04/14 03:06:21;;;;;;;;;;;;;;;0.93;82.02;99475.22;4934806;29;19937;-60
2022/04/14 03:08:47;;;;;;;;;;;;;;;0.96;81.57;99480.91;4934545;29;19934;-62
2022/04/14 03:11:12;;;;;;;;;;;;;;;1.04;81.31;99474.84;4934656;29;20022;-61
2022/04/14 03:13:38;;;;;;;;;;;;;;;1.04;81.02;99475.63;4934537;29;19962;-61
2022/04/14 03:16:04;;;;;;;;;;;;;;;1.10;80.52;99472.34;4945521;29;19934;-62
2022/04/14 03:18:30;;;;;;;;;;;;;;;1.15;80.98;99477.03;4953721;29;19926;-60
2022/04/14 03:20:55;;;;;;;;;;;;;;;1.12;80.47;99493.88;4953534;29;20042;-60
2022/04/14 03:23:21;;;;;;;;;;;;;;;1.17;80.50;99489.91;4954020;29;20415;-60
2022/04/14 03:25:46;;;;;;;;;;;;;;;1.22;80.20;99471.94;4953866;29;19988;-60
2022/04/14 03:28:12;;;;;;;;;;;;;;;1.29;79.83;99476.25;4953347;29;20308;-62
2022/04/14 03:30:37;;;;;;;;;;;;;;;1.29;79.85;99494.53;4929669;29;19926;-61
2022/04/14 03:33:03;;;;;;;;;;;;;;;1.27;80.01;99490.50;4917296;29;19937;-61
2022/04/14 03:35:28;;;;;;;;;;;;;;;1.29;79.69;99504.19;4934266;29;19927;-60
2022/04/14 03:37:54;;;;;;;;;;;;;;;1.28;79.51;99495.53;4917336;29;19937;-62
2022/04/14 03:40:19;;;;;;;;;;;;;;;1.35;79.32;99493.03;4917282;29;20415;-60
2022/04/14 03:42:45;;;;;;;;;;;;;;;1.39;79.26;99499.56;4934777;29;19930;-63
2022/04/14 03:45:10;;;;;;;;;;;;;;;1.44;79.13;99491.16;4918145;29;19927;-60
2022/04/14 03:47:39;;;;;;;;;;;;;;;1.54;78.66;99486.53;4953823;29;20388;-59
2022/04/14 03:50:04;;;;;;;;;;;;;;;1.62;78.64;99489.06;4946660;29;19931;-60
2022/04/14 03:52:30;;;;;;;;;;;;;;;1.68;78.47;99495.41;4919042;29;19930;-61
2022/04/14 03:54:57;;;;;;;;;;;;;;;1.82;77.60;99510.28;4937882;29;20017;-61
2022/04/14 03:57:22;;;;;;;;;;;;;;;1.89;77.07;99482.44;4920681;29;19938;-60
2022/04/14 03:59:48;;;;;;;;;;;;;;;2.04;76.11;99513.84;4937855;29;20003;-60
2022/04/14 04:02:13;;;;;;;;;;;;;;;2.30;75.17;99489.06;4954345;29;19984;-61
2022/04/14 04:04:39;;;;;;;;;;;;;;;2.55;74.47;99500.03;4955111;29;20300;-60
2022/04/14 04:07:05;;;;;;;;;;;;;;;2.65;74.13;99490.09;4938616;29;19935;-61
2022/04/14 04:09:32;;;;;;;;;;;;;;;2.77;73.03;99501.72;4926095;29;20001;-61
2022/04/14 04:11:58;;;;;;;;;;;;;;;3.02;72.56;99496.94;4956920;29;19930;-60
2022/04/14 04:14:24;;;;;;;;;;;;;;;3.16;71.42;99498.69;4956802;29;19927;-60
2022/04/14 04:16:49;;;;;;;;;;;;;;;3.23;71.29;99508.44;4956376;29;19930;-60
2022/04/14 04:19:14;;;;;;;;;;;;;;;3.30;70.63;99494.41;4956294;29;20453;-61
2022/04/14 04:21:40;;;;;;;;;;;;;;;3.48;70.15;99499.22;4956835;29;19930;-60
2022/04/14 04:24:05;;;;;;;;;;;;;;;3.62;69.73;99494.91;4956256;29;19933;-61
2022/04/14 04:26:31;;;;;;;;;;;;;;;3.52;69.74;99510.91;4955382;29;20037;-60
2022/04/14 04:28:57;;;;;;;;;;;;;;;3.62;69.37;99494.91;4956749;29;19926;-59
2022/04/14 04:31:22;;;;;;;;;;;;;;;3.62;68.68;99534.22;4948542;29;20375;-59
2022/04/14 04:33:51;;;;;;;;;;;;;;;3.61;69.05;99490.63;4919830;29;19926;-61
2022/04/14 04:36:17;;;;;;;;;;;;;;;3.55;68.93;99497.44;4935818;29;19953;-61
2022/04/14 04:38:42;;;;;;;;;;;;;;;3.66;68.32;99498.75;4937091;29;19926;-62
2022/04/14 04:41:08;;;;;;;;;;;;;;;3.61;68.47;99488.00;4937167;29;20013;-61
2022/04/14 04:43:33;;;;;;;;;;;;;;;3.59;68.69;99492.66;4904158;29;20297;-61
2022/04/14 04:45:59;;;;;;;;;;;;;;;3.59;68.66;99501.31;4919303;29;19970;-60
2022/04/14 04:48:24;;;;;;;;;;;;;;;3.52;68.63;99483.91;4935778;29;19938;-62
2022/04/14 04:50:51;;;;;;;;;;;;;;;3.45;69.25;99490.91;4936766;29;19970;-61
2022/04/14 04:53:16;;;;;;;;;;;;;;;3.48;68.73;99498.41;4937110;29;19927;-60
2022/04/14 04:55:42;;;;;;;;;;;;;;;3.47;68.64;99499.38;4919955;29;19949;-61
2022/04/14 04:58:07;;;;;;;;;;;;;;;3.48;68.14;99498.41;4936675;29;20411;-60
2022/04/14 05:00:33;;;;;;;;;;;;;;;3.42;67.85;99539.28;4903722;29;19946;-61
2022/04/14 05:02:58;;;;;;;;;;;;;;;3.25;68.84;99494.16;4952992;28;20103;-63
2022/04/14 05:05:24;;;;;;;;;;;;;;;3.35;68.05;99505.16;4955401;29;19942;-61
2022/04/14 05:07:50;;;;;;;;;;;;;;;3.34;67.80;99495.66;4955550;29;20312;-62
2022/04/14 05:10:15;;;;;;;;;;;;;;;3.21;68.56;99515.66;4938915;29;19926;-61
2022/04/14 05:12:41;;;;;;;;;;;;;;;3.22;68.02;99507.63;4955876;29;20415;-63
2022/04/14 05:15:06;;;;;;;;;;;;;;;3.30;67.84;99499.66;4954778;29;19973;-60
2022/04/14 05:17:32;;;;;;;;;;;;;;;3.38;67.92;99499.53;4936791;29;19927;-60
2022/04/14 05:19:57;;;;;;;;;;;;;;;3.45;67.87;99502.22;4942712;29;19937;-60
2022/04/14 05:22:23;;;;;;;;;;;;;;;3.50;67.23;99526.06;4953556;29;19926;-58
2022/04/14 05:24:48;;;;;;;;;;;;;;;3.48;66.85;99517.56;4955303;29;19927;-59
2022/04/14 05:27:14;;;;;;;;;;;;;;;3.53;66.77;99514.34;4930204;29;20038;-58
2022/04/14 05:29:39;;;;;;;;;;;;;;;3.57;66.99;99507.75;4951342;29;19948;-59
2022/04/14 05:32:05;;;;;;;;;;;;;;;3.56;66.72;99504.31;4954866;29;19930;-61
2022/04/14 05:34:31;;;;;;;;;;;;;;;3.64;66.63;99517.28;4953702;29;20016;-57
2022/04/14 05:36:56;;;;;;;;;;;;;;;3.71;66.14;99506.06;4944620;29;19926;-60
2022/04/14 05:39:22;;;;;;;;;;;;;;;3.71;66.33;99508.69;4938090;29;20304;-60
2022/04/14 05:41:47;;;;;;;;;;;;;;;3.72;66.03;99503.22;4940589;29;20021;-58
2022/04/14 05:44:13;;;;;;;;;;;;;;;3.78;65.66;99507.72;4935796;29;19927;-57
2022/04/14 05:46:38;;;;;;;;;;;;;;;3.78;65.34;99510.34;4936035;29;19952;-58
2022/04/14 05:49:04;;;;;;;;;;;;;;;3.86;65.62;99510.19;4935702;29;20450;-58
2022/04/14 05:51:29;;;;;;;;;;;;;;;3.87;65.19;99530.16;4935815;29;19927;-60
2022/04/14 05:53:55;;;;;;;;;;;;;;;3.85;64.93;99528.72;4948737;29;19926;-59
2022/04/14 05:56:20;;;;;;;;;;;;;;;3.87;64.85;99516.25;4954929;29;19984;-60
2022/04/14 05:58:46;;;;;;;;;;;;;;;3.98;64.59;99520.16;4921741;29;19974;-58
2022/04/14 06:01:12;;;;;;;;;;;;;;;3.95;64.01;99529.22;4937457;29;19937;-58
2022/04/14 06:03:38;;;;;;;;;;;;;;;3.99;64.63;99532.28;4937475;29;19927;-60
2022/04/14 06:06:04;;;;;;;;;;;;;;;4.09;63.56;99523.06;4954482;29;20407;-60
2022/04/14 06:08:30;;;;;;;;;;;;;;;4.19;63.41;99535.84;4932580;29;19932;-60
2022/04/14 06:10:55;;;;;;;;;;;;;;;4.23;62.99;99537.06;4936239;29;20421;-60
2022/04/14 06:13:21;;;;;;;;;;;;;;;4.18;62.71;99536.84;4950373;29;20460;-58
2022/04/14 06:15:46;;;;;;;;;;;;;;;4.27;62.54;99527.03;4940449;28;19937;-58
2022/04/14 06:18:12;;;;;;;;;;;;;;;4.29;62.67;99536.31;4934018;29;19934;-59
2022/04/14 06:20:37;;;;;;;;;;;;;;;4.36;62.07;99518.00;4935909;29;20332;-59
2022/04/14 06:23:03;;;;;;;;;;;;;;;4.33;62.37;99527.06;4930887;29;20776;-58
2022/04/14 06:25:28;;;;;;;;;;;;;;;4.50;61.49;99532.81;4948167;29;19972;-60
2022/04/14 06:27:55;;;;;;;;;;;;;;;4.55;61.58;99522.50;4947921;29;20037;-59
2022/04/14 06:30:20;;;;;;;;;;;;;;;4.63;61.57;99534.69;4935924;29;19926;-59
2022/04/14 06:32:58;;;;;;;;;;;;;;;4.58;60.48;99544.16;4944338;29;19937;-58
2022/04/14 06:35:24;;;;;;;;;;;;;;;4.65;60.43;99532.69;4933094;29;19934;-61
2022/04/14 06:37:49;;;;;;;;;;;;;;;4.72;59.79;99536.13;4931758;29;19927;-60
2022/04/14 06:40:15;;;;;;;;;;;;;;;4.87;60.83;99538.63;4933231;29;19926;-58
2022/04/14 06:42:41;;;;;;;;;;;;;;;4.89;59.34;99548.94;4934805;29;20395;-58
2022/04/14 06:45:07;;;;;;;;;;;;;;;4.91;59.79;99541.66;4947139;29;19933;-60
2022/04/14 06:47:33;;;;;;;;;;;;;;;4.99;59.84;99560.69;4953839;29;20386;-60
2022/04/14 06:49:58;;;;;;;;;;;;;;;5.01;58.85;99535.03;4953251;29;19926;-60
2022/04/14 06:52:24;;;;;;;;;;;;;;;5.04;59.00;99530.41;4951871;29;19950;-60
2022/04/14 06:54:49;;;;;;;;;;;;;;;5.05;58.46;99547.78;4929145;29;20380;-59
2022/04/14 06:57:15;;;;;;;;;;;;;;;5.09;59.17;99535.84;4934797;29;20412;-60
2022/04/14 06:59:41;;;;;;;;;;;;;;;5.24;59.47;99532.06;4932531;29;20038;-59
2022/04/14 07:02:07;;;;;;;;;;;;;;;5.39;58.99;99516.13;4933523;29;20376;-60
2022/04/14 07:04:33;;;;;;;;;;;;;;;5.46;59.08;99529.25;4925509;29;20021;-61
2022/04/14 07:06:58;;;;;;;;;;;;;;;5.46;57.91;99516.91;4916109;29;19930;-59
2022/04/14 07:09:24;;;;;;;;;;;;;;;5.48;57.66;99529.88;4933566;29;19926;-60
2022/04/14 07:11:49;;;;;;;;;;;;;;;5.46;57.42;99524.00;4951006;29;19938;-60
2022/04/14 07:14:16;;;;;;;;;;;;;;;5.56;57.87;99526.22;4908298;29;19926;-62
2022/04/14 07:16:42;;;;;;;;;;;;;;;5.68;57.42;99516.75;4946181;29;19953;-59
2022/04/14 07:19:07;;;;;;;;;;;;;;;5.73;56.45;99529.28;4951693;29;20392;-60
2022/04/14 07:21:33;;;;;;;;;;;;;;;5.79;56.27;99520.56;4951263;29;19957;-60
2022/04/14 07:23:58;;;;;;;;;;;;;;;5.87;55.96;99528.28;4932666;29;20041;-61
2022/04/14 07:26:24;;;;;;;;;;;;;;;5.82;54.67;99528.88;4950116;28;19931;-61
2022/04/14 07:28:49;;;;;;;;;;;;;;;5.77;54.37;99509.47;4942795;29;19927;-61
2022/04/14 07:31:15;;;;;;;;;;;;;;;5.80;53.33;99515.13;4936770;29;19931;-63
2022/04/14 07:33:41;;;;;;;;;;;;;;;5.87;54.29;99496.69;4955297;29;20351;-61
2022/04/14 07:36:07;;;;;;;;;;;;;;;5.87;55.50;99499.34;4938316;29;20073;-60
2022/04/14 07:38:32;;;;;;;;;;;;;;;6.01;53.72;99508.88;4936454;29;19927;-60
2022/04/14 07:40:58;;;;;;;;;;;;;;;5.99;54.84;99504.81;4947078;29;19937;-60
2022/04/14 07:43:24;;;;;;;;;;;;;;;5.98;53.58;99490.84;4929243;29;19938;-60
2022/04/14 07:45:50;;;;;;;;;;;;;;;6.03;53.74;99534.97;4941717;29;20400;-61
2022/04/14 07:48:21;;;;;;;;;;;;;;;6.08;54.22;99499.13;4954183;29;19970;-62
2022/04/14 07:50:48;;;;;;;;;;;;;;;6.17;51.57;99523.41;4955385;29;19974;-60
2022/04/14 07:53:13;;;;;;;;;;;;;;;6.13;52.50;99507.22;4948518;29;20348;-61
2022/04/14 07:55:39;;;;;;;;;;;;;;;6.28;52.89;99493.03;4955685;29;19970;-60
2022/04/14 07:58:07;;;;;;;;;;;;;;;6.19;52.05;99496.91;4955484;29;20424;-61
2022/04/14 08:00:36;;;;;;;;;;;;;;;6.20;51.69;99507.19;4937409;29;19926;-62
2022/04/14 08:03:02;;;;;;;;;;;;;;;6.23;51.14;99522.59;4922829;29;19934;-61
2022/04/14 08:05:29;;;;;;;;;;;;;;;6.32;51.06;99544.22;4952926;29;20036;-62
2022/04/14 08:07:55;;;;;;;;;;;;;;;6.36;50.61;99490.16;4938697;29;19931;-61
2022/04/14 08:10:20;;;;;;;;;;;;;;;6.41;51.78;99515.88;4956263;29;19938;-63
2022/04/14 08:12:47;;;;;;;;;;;;;;;6.46;51.22;99497.63;4954962;29;19934;-60
2022/04/14 08:15:13;;;;;;;;;;;;;;;6.43;51.24;99506.75;4953844;29;20257;-59
2022/04/14 08:17:41;;;;;;;;;;;;;;;6.47;49.27;99504.50;4954888;29;20086;-59
2022/04/14 08:20:08;;;;;;;;;;;;;;;6.56;49.80;99488.28;4954049;29;20013;-61
2022/04/14 08:22:47;;;;;;;;;;;;;;;6.60;49.36;99501.84;4924200;29;19938;-60
2022/04/14 08:25:14;;;;;;;;;;;;;;;6.63;48.06;99508.50;4934510;29;19927;-61
2022/04/14 08:27:39;;;;;;;;;;;;;;;6.69;48.01;99495.31;4919555;29;20316;-60
2022/04/14 08:30:05;;;;;;;;;;;;;;;6.81;49.13;99496.25;4936751;29;19931;-60
2022/04/14 08:32:31;;;;;;;;;;;;;;;6.89;47.66;99495.22;4937215;29;20437;-61
2022/04/14 08:34:56;;;;;;;;;;;;;;;6.87;47.32;99509.63;4918272;29;20478;-60
2022/04/14 08:37:22;;;;;;;;;;;;;;;6.90;46.00;99494.19;4918799;29;20417;-60
2022/04/14 08:39:47;;;;;;;;;;;;;;;6.97;44.97;99504.69;4919735;29;19933;-61
2022/04/14 08:42:15;;;;;;;;;;;;;;;6.98;45.81;99491.31;4934288;29;20307;-60
2022/04/14 08:44:44;;;;;;;;;;;;;;;7.01;45.13;99501.44;4919985;29;19927;-59
2022/04/14 08:47:10;;;;;;;;;;;;;;;7.03;43.41;99499.41;4920063;29;19937;-60
2022/04/14 08:49:35;;;;;;;;;;;;;;;7.06;43.88;99495.56;4936267;29;19927;-61
2022/04/14 08:52:01;;;;;;;;;;;;;;;7.10;43.76;99474.84;4936987;29;19974;-62
2022/04/14 08:54:26;;;;;;;;;;;;;;;7.16;44.51;99493.25;4919182;29;19969;-61
2022/04/14 08:56:52;;;;;;;;;;;;;;;7.23;43.46;99477.38;4914662;29;19931;-61
2022/04/14 08:59:18;;;;;;;;;;;;;;;7.23;43.41;99491.38;4914763;29;19927;-61
2022/04/14 09:01:43;;;;;;;;;;;;;;;7.22;43.46;99481.03;4915668;29;19931;-60
2022/04/14 09:04:09;;;;;;;;;;;;;;;7.25;43.53;99513.06;4914316;29;19933;-62
2022/04/14 09:06:35;;;;;;;;;;;;;;;7.21;42.95;99484.72;4914360;29;19942;-60
2022/04/14 09:09:01;;;;;;;;;;;;;;;7.28;43.03;99472.28;4915449;29;19927;-62
2022/04/14 09:11:27;;;;;;;;;;;;;;;7.32;43.39;99477.94;4915570;29;20407;-62
2022/04/14 09:13:53;;;;;;;;;;;;;;;7.41;41.85;99471.38;4916892;29;19927;-61
2022/04/14 09:16:18;;;;;;;;;;;;;;;7.39;42.55;99479.50;4915379;29;19931;-60
2022/04/14 09:18:45;;;;;;;;;;;;;;;7.42;42.02;99468.53;4898951;29;19931;-61
2022/04/14 09:21:11;;;;;;;;;;;;;;;7.39;41.85;99453.13;4915208;29;20038;-61
2022/04/14 09:23:36;;;;;;;;;;;;;;;7.40;42.30;99464.50;4915558;29;20418;-61
2022/04/14 09:26:09;;;;;;;;;;;;;;;7.47;43.60;99449.41;4915295;29;20025;-60
2022/04/14 09:28:35;;;;;;;;;;;;;;;7.54;42.17;99476.56;4914424;29;19935;-61
2022/04/14 09:31:00;;;;;;;;;;;;;;;7.57;41.76;99481.41;4914358;29;20397;-61
2022/04/14 09:33:26;;;;;;;;;;;;;;;7.54;41.64;99452.00;4915724;29;19927;-62
2022/04/14 09:36:12;;;;;;;;;;;;;;;7.55;41.99;99480.00;4914781;29;20337;-61
2022/04/14 09:38:56;;;;;;;;;;;;;;;7.58;41.99;99447.91;4915597;29;19990;-60
2022/04/14 09:41:26;;;;;;;;;;;;;;;7.63;42.38;99459.44;4914380;29;19931;-60
2022/04/14 09:43:55;;;;;;;;;;;;;;;7.70;41.73;99486.56;4914516;29;19927;-63
2022/04/14 09:46:20;;;;;;;;;;;;;;;7.69;41.52;99469.13;4915366;29;19978;-61
2022/04/14 09:49:00;;;;;;;;;;;;;;;7.72;41.53;99457.31;4913534;29;19927;-61
2022/04/14 09:51:26;;;;;;;;;;;;;;;7.73;41.78;99480.88;4913858;29;20357;-60
2022/04/14 09:54:01;;;;;;;;;;;;;;;7.76;42.06;99469.06;4917616;29;19934;-59
2022/04/14 09:56:36;;;;;;;;;;;;;;;7.80;42.62;99472.88;4914746;29;19964;-63
2022/04/14 09:59:05;;;;;;;;;;;;;;;7.85;41.33;99461.66;4934687;29;20399;-62
2022/04/14 10:01:31;;;;;;;;;;;;;;;7.82;39.96;99460.25;4934312;29;19986;-61
2022/04/14 10:03:58;;;;;;;;;;;;;;;7.78;40.62;99500.50;4944408;29;19926;-61
2022/04/14 10:06:23;;;;;;;;;;;;;;;7.78;41.54;99461.72;4933884;29;19931;-60
2022/04/14 10:08:51;;;;;;;;;;;;;;;7.81;42.17;99458.66;4949495;29;19926;-61
2022/04/14 10:11:19;;;;;;;;;;;;;;;7.87;41.74;99459.63;4936291;29;20464;-59
2022/04/14 10:13:45;;;;;;;;;;;;;;;7.91;42.89;99447.59;4924001;29;19952;-62
2022/04/14 10:16:10;;;;;;;;;;;;;;;7.95;42.78;99435.59;4954477;28;19930;-61
2022/04/14 10:18:36;;;;;;;;;;;;;;;7.99;43.48;99457.06;4908472;29;19930;-62
2022/04/14 10:21:01;;;;;;;;;;;;;;;8.04;42.73;99438.75;4917427;29;19988;-60
2022/04/14 10:23:27;;;;;;;;;;;;;;;8.08;42.64;99455.75;4949072;29;19927;-62
2022/04/14 10:25:53;;;;;;;;;;;;;;;8.08;42.50;99438.09;4953963;29;19926;-61
2022/04/14 10:28:19;;;;;;;;;;;;;;;8.14;43.03;99436.41;4952985;29;19926;-62
2022/04/14 10:30:46;;;;;;;;;;;;;;;8.23;43.33;99448.28;4929983;29;20017;-61
2022/04/14 10:33:12;;;;;;;;;;;;;;;8.28;42.58;99453.72;4932289;29;19927;-62
2022/04/14 10:35:37;;;;;;;;;;;;;;;8.31;40.63;99458.56;4936155;29;19934;-61
2022/04/14 10:38:07;;;;;;;;;;;;;;;8.33;41.14;99427.44;4935377;29;20013;-61
2022/04/14 10:40:33;;;;;;;;;;;;;;;8.40;41.29;99443.25;4951750;29;19927;-60
2022/04/14 10:42:58;;;;;;;;;;;;;;;8.50;41.61;99426.84;4934829;29;20495;-60
2022/04/14 10:45:24;;;;;;;;;;;;;;;8.49;41.82;99441.91;4951442;29;20451;-63
2022/04/14 10:47:49;;;;;;;;;;;;;;;8.50;41.88;99443.53;4941063;29;20304;-64
2022/04/14 10:50:18;;;;;;;;;;;;;;;8.49;40.98;99431.34;4932564;29;19933;-61
2022/04/14 10:53:04;;;;;;;;;;;;;;;8.59;42.00;99423.72;4951768;29;19935;-64
2022/04/14 10:55:36;;;;;;;;;;;;;;;8.58;40.32;99430.00;4950355;29;19933;-61
2022/04/14 10:58:01;;;;;;;;;;;;;;;8.60;40.60;99435.88;4950101;29;19981;-62
2022/04/14 11:00:38;;;;;;;;;;;;;;;8.63;40.52;99427.50;4928714;29;19930;-63
2022/04/14 11:03:11;;;;;;;;;;;;;;;8.67;41.18;99440.28;4901286;29;19926;-60
2022/04/14 11:05:40;;;;;;;;;;;;;;;8.70;40.06;99422.13;4951862;29;19926;-60
2022/04/14 11:08:24;;;;;;;;;;;;;;;8.62;40.62;99427.75;4930132;29;19933;-61
2022/04/14 11:11:09;;;;;;;;;;;;;;;8.53;41.03;99439.63;4932881;29;20300;-60
2022/04/14 11:13:50;;;;;;;;;;;;;;;8.59;41.31;99418.44;4946536;29;19937;-62
2022/04/14 11:16:34;;;;;;;;;;;;;;;8.59;41.38;99407.06;4951048;29;19930;-59
2022/04/14 11:19:18;;;;;;;;;;;;;;;8.59;40.38;99399.13;4952525;29;19966;-58
2022/04/14 11:22:08;;;;;;;;;;;;;;;8.68;41.51;99402.22;4953387;29;20029;-61
2022/04/14 11:24:40;;;;;;;;;;;;;;;8.73;40.75;99395.25;4951984;29;19928;-61
2022/04/14 11:27:16;;;;;;;;;;;;;;;8.76;40.82;99404.56;4946757;29;20018;-61
2022/04/14 11:29:43;;;;;;;;;;;;;;;8.74;41.10;99401.38;4928636;29;19927;-61
2022/04/14 11:32:09;;;;;;;;;;;;;;;8.70;40.30;99397.53;4945055;29;19937;-61
2022/04/14 11:34:34;;;;;;;;;;;;;;;8.68;40.66;99396.94;4930627;29;19926;-62
2022/04/14 11:37:01;;;;;;;;;;;;;;;8.63;40.02;99416.94;4930275;29;20389;-60
2022/04/14 11:39:27;;;;;;;;;;;;;;;8.64;39.72;99407.97;4929854;29;20029;-61
2022/04/14 11:41:55;;;;;;;;;;;;;;;8.64;40.57;99400.03;4935396;29;20045;-60
2022/04/14 11:44:32;;;;;;;;;;;;;;;8.68;39.82;99394.31;4931495;29;19926;-61
2022/04/14 11:47:04;;;;;;;;;;;;;;;8.78;39.73;99405.16;4942590;29;19930;-60
2022/04/14 11:49:31;;;;;;;;;;;;;;;8.78;39.77;99416.53;4934258;29;20414;-62
2022/04/14 11:51:57;;;;;;;;;;;;;;;8.82;40.23;99395.75;4934735;29;20393;-62
2022/04/14 11:54:29;;;;;;;;;;;;;;;8.87;41.53;99387.94;4949890;29;20372;-62
2022/04/14 11:56:55;;;;;;;;;;;;;;;8.94;40.26;99398.41;4952897;29;19930;-61
2022/04/14 11:59:31;;;;;;;;;;;;;;;8.95;40.17;99386.81;4947106;29;19927;-61
2022/04/14 12:02:01;;;;;;;;;;;;;;;8.89;39.53;99385.09;4931688;29;19938;-60
2022/04/14 12:04:26;;;;;;;;;;;;;;;8.91;39.32;99391.72;4931322;29;20318;-59
2022/04/14 12:06:52;;;;;;;;;;;;;;;8.89;39.07;99375.31;4931764;29;19935;-62
2022/04/14 12:09:19;;;;;;;;;;;;;;;8.93;39.16;99373.03;4943564;29;19934;-61
2022/04/14 12:11:44;;;;;;;;;;;;;;;9.03;39.90;99394.41;4930811;29;19935;-61
2022/04/14 12:14:10;;;;;;;;;;;;;;;9.00;40.53;99379.00;4944362;29;19933;-61
2022/04/14 12:16:35;;;;;;;;;;;;;;;9.04;40.52;99388.91;4955501;29;20037;-60
2022/04/14 12:19:02;;;;;;;;;;;;;;;9.06;40.48;99384.22;4954095;29;19926;-61
2022/04/14 12:21:28;;;;;;;;;;;;;;;9.08;39.60;99394.53;4927203;29;19937;-61
2022/04/14 12:23:55;;;;;;;;;;;;;;;9.13;39.00;99399.97;4934578;29;19926;-63
2022/04/14 12:26:21;;;;;;;;;;;;;;;9.13;38.48;99394.66;4935546;29;19938;-61
2022/04/14 12:28:47;;;;;;;;;;;;;;;9.15;38.97;99378.56;4918209;29;20348;-64
2022/04/14 12:31:12;;;;;;;;;;;;;;;9.12;39.05;99406.28;4953027;29;19930;-60
2022/04/14 12:33:38;;;;;;;;;;;;;;;9.14;39.09;99380.41;4936093;29;20368;-61
2022/04/14 12:36:07;;;;;;;;;;;;;;;9.19;38.98;99390.31;4935553;29;19935;-61
2022/04/14 12:38:45;;;;;;;;;;;;;;;9.18;38.37;99388.72;4934165;29;20289;-61
2022/04/14 12:41:15;;;;;;;;;;;;;;;9.20;39.05;99373.41;4942712;29;19985;-61
2022/04/14 12:43:41;;;;;;;;;;;;;;;9.29;39.30;99362.28;4935926;29;19926;-61
2022/04/14 12:46:39;;;;;;;;;;;;;;;9.31;38.95;99362.84;4955305;29;20025;-61
2022/04/14 12:49:08;;;;;;;;;;;;;;;9.31;39.71;99357.53;4953735;29;19930;-61
2022/04/14 12:51:37;;;;;;;;;;;;;;;9.35;41.00;99359.72;4951716;29;19931;-61
2022/04/14 12:54:03;;;;;;;;;;;;;;;9.42;39.56;99358.59;4937817;29;19926;-62
2022/04/14 12:56:29;;;;;;;;;;;;;;;9.44;40.20;99355.69;4936853;29;19937;-61